sensor_id;sensor_type;location;lat;lon;timestamp;temperature;humidity
20827;DHT22;10574;52.508;13.236;2024-03-25T00:02:21;6.00;99.90
20827;DHT22;10574;52.508;13.236;2024-03-25T00:04:49;6.00;99.90
20827;DHT22;10574;52.508;13.236;2024-03-25T00:07:17;6.00;99.90
20827;DHT22;10574;52.508;13.236;2024-03-25T00:09:44;6.00;99.90
20827;DHT22;10574;52.508;13.236;2024-03-25T00:12:12;6.00;99.90
20827;DHT22;10574;52.508;13.236;2024-03-25T00:14:40;5.90;99.90
20827;DHT22;10574;52.508;13.236;2024-03-25T00:17:07;6.00;99.90
20827;DHT22;10574;52.508;13.236;2024-03-25T00:19:37;6.00;99.90
20827;DHT22;10574;52.508;13.236;2024-03-25T00:22:04;6.00;99.90
20827;DHT22;10574;52.508;13.236;2024-03-25T00:24:32;6.00;99.90
20827;DHT22;10574;52.508;13.236;2024-03-25T00:27:00;6.00;99.90
20827;DHT22;10574;52.508;13.236;2024-03-25T00:29:28;6.00;99.90
20827;DHT22;10574;52.508;13.236;2024-03-25T00:31:56;6.00;99.90
20827;DHT22;10574;52.508;13.236;2024-03-25T00:34:23;6.00;99.90
20827;DHT22;10574;52.508;13.236;2024-03-25T00:36:51;6.00;99.90
20827;DHT22;10574;52.508;13.236;2024-03-25T00:39:19;6.00;99.90
20827;DHT22;10574;52.508;13.236;2024-03-25T00:41:48;6.00;99.90
20827;DHT22;10574;52.508;13.236;2024-03-25T00:44:16;6.00;99.90
20827;DHT22;10574;52.508;13.236;2024-03-25T00:46:44;6.00;99.90
20827;DHT22;10574;52.508;13.236;2024-03-25T00:49:11;6.00;99.90
20827;DHT22;10574;52.508;13.236;2024-03-25T00:51:39;6.00;99.90
20827;DHT22;10574;52.508;13.236;2024-03-25T00:54:07;6.00;99.90
20827;DHT22;10574;52.508;13.236;2024-03-25T00:56:35;6.00;99.90
20827;DHT22;10574;52.508;13.236;2024-03-25T00:59:03;6.00;99.90
20827;DHT22;10574;52.508;13.236;2024-03-25T01:01:35;6.00;99.90
20827;DHT22;10574;52.508;13.236;2024-03-25T01:04:03;6.00;99.90
20827;DHT22;10574;52.508;13.236;2024-03-25T01:06:31;6.00;99.90
20827;DHT22;10574;52.508;13.236;2024-03-25T01:08:58;6.10;99.90
20827;DHT22;10574;52.508;13.236;2024-03-25T01:11:26;6.10;99.90
20827;DHT22;10574;52.508;13.236;2024-03-25T01:13:54;6.10;99.90
20827;DHT22;10574;52.508;13.236;2024-03-25T01:16:22;6.10;99.90
20827;DHT22;10574;52.508;13.236;2024-03-25T01:18:49;6.10;99.90
20827;DHT22;10574;52.508;13.236;2024-03-25T01:21:17;6.10;99.90
20827;DHT22;10574;52.508;13.236;2024-03-25T01:23:45;6.10;99.90
20827;DHT22;10574;52.508;13.236;2024-03-25T01:26:13;6.10;99.90
20827;DHT22;10574;52.508;13.236;2024-03-25T01:28:41;6.10;99.90
20827;DHT22;10574;52.508;13.236;2024-03-25T01:31:09;6.10;99.90
20827;DHT22;10574;52.508;13.236;2024-03-25T01:33:36;6.00;99.90
20827;DHT22;10574;52.508;13.236;2024-03-25T01:36:05;5.90;99.90
20827;DHT22;10574;52.508;13.236;2024-03-25T01:38:33;5.90;99.90
20827;DHT22;10574;52.508;13.236;2024-03-25T01:41:11;5.80;99.90
20827;DHT22;10574;52.508;13.236;2024-03-25T01:43:39;5.90;99.90
20827;DHT22;10574;52.508;13.236;2024-03-25T01:46:07;5.90;99.90
20827;DHT22;10574;52.508;13.236;2024-03-25T01:48:36;5.80;99.90
20827;DHT22;10574;52.508;13.236;2024-03-25T01:51:04;5.70;99.90
20827;DHT22;10574;52.508;13.236;2024-03-25T01:53:32;5.70;99.90
20827;DHT22;10574;52.508;13.236;2024-03-25T01:56:00;5.70;99.90
20827;DHT22;10574;52.508;13.236;2024-03-25T01:58:29;5.70;99.90
20827;DHT22;10574;52.508;13.236;2024-03-25T02:00:58;5.70;99.90
20827;DHT22;10574;52.508;13.236;2024-03-25T02:03:29;5.70;99.90
20827;DHT22;10574;52.508;13.236;2024-03-25T02:05:59;5.70;99.90
20827;DHT22;10574;52.508;13.236;2024-03-25T02:08:27;5.80;99.90
20827;DHT22;10574;52.508;13.236;2024-03-25T02:10:56;5.80;99.90
20827;DHT22;10574;52.508;13.236;2024-03-25T02:13:24;5.80;99.90
20827;DHT22;10574;52.508;13.236;2024-03-25T02:15:52;5.80;99.90
20827;DHT22;10574;52.508;13.236;2024-03-25T02:18:21;5.80;99.90
20827;DHT22;10574;52.508;13.236;2024-03-25T02:20:50;5.80;99.90
20827;DHT22;10574;52.508;13.236;2024-03-25T02:23:21;5.80;99.90
20827;DHT22;10574;52.508;13.236;2024-03-25T02:25:52;5.80;99.90
20827;DHT22;10574;52.508;13.236;2024-03-25T02:28:21;5.80;99.90
20827;DHT22;10574;52.508;13.236;2024-03-25T02:30:48;5.80;99.90
20827;DHT22;10574;52.508;13.236;2024-03-25T02:33:16;5.80;99.90
20827;DHT22;10574;52.508;13.236;2024-03-25T02:35:44;5.80;99.90
20827;DHT22;10574;52.508;13.236;2024-03-25T02:38:12;5.80;99.90
20827;DHT22;10574;52.508;13.236;2024-03-25T02:40:41;5.80;99.90
20827;DHT22;10574;52.508;13.236;2024-03-25T02:43:11;5.70;99.90
20827;DHT22;10574;52.508;13.236;2024-03-25T02:45:39;5.70;99.90
20827;DHT22;10574;52.508;13.236;2024-03-25T02:48:06;5.80;99.90
20827;DHT22;10574;52.508;13.236;2024-03-25T02:50:34;5.80;99.90
20827;DHT22;10574;52.508;13.236;2024-03-25T02:53:02;5.70;99.90
20827;DHT22;10574;52.508;13.236;2024-03-25T02:55:30;5.70;99.90
20827;DHT22;10574;52.508;13.236;2024-03-25T02:57:57;5.70;99.90
20827;DHT22;10574;52.508;13.236;2024-03-25T03:00:25;5.70;99.90
20827;DHT22;10574;52.508;13.236;2024-03-25T03:02:53;5.70;99.90
20827;DHT22;10574;52.508;13.236;2024-03-25T03:05:21;5.70;99.90
20827;DHT22;10574;52.508;13.236;2024-03-25T03:07:49;5.70;99.90
20827;DHT22;10574;52.508;13.236;2024-03-25T03:10:16;5.70;99.90
20827;DHT22;10574;52.508;13.236;2024-03-25T03:12:44;5.70;99.90
20827;DHT22;10574;52.508;13.236;2024-03-25T03:15:12;5.70;99.90
20827;DHT22;10574;52.508;13.236;2024-03-25T03:17:41;5.70;99.90
20827;DHT22;10574;52.508;13.236;2024-03-25T03:20:12;5.70;99.90
20827;DHT22;10574;52.508;13.236;2024-03-25T03:22:42;5.70;99.90
20827;DHT22;10574;52.508;13.236;2024-03-25T03:25:12;5.70;99.90
20827;DHT22;10574;52.508;13.236;2024-03-25T03:27:41;5.60;99.90
20827;DHT22;10574;52.508;13.236;2024-03-25T03:30:09;5.60;99.90
20827;DHT22;10574;52.508;13.236;2024-03-25T03:32:39;5.60;99.90
20827;DHT22;10574;52.508;13.236;2024-03-25T03:35:09;5.60;99.90
20827;DHT22;10574;52.508;13.236;2024-03-25T03:37:38;5.60;99.90
20827;DHT22;10574;52.508;13.236;2024-03-25T03:40:06;5.60;99.90
20827;DHT22;10574;52.508;13.236;2024-03-25T03:42:34;5.60;99.90
20827;DHT22;10574;52.508;13.236;2024-03-25T03:45:02;5.60;99.90
20827;DHT22;10574;52.508;13.236;2024-03-25T03:47:30;5.60;99.90
20827;DHT22;10574;52.508;13.236;2024-03-25T03:49:57;5.60;99.90
20827;DHT22;10574;52.508;13.236;2024-03-25T03:52:25;5.60;99.90
20827;DHT22;10574;52.508;13.236;2024-03-25T03:54:53;5.70;99.90
20827;DHT22;10574;52.508;13.236;2024-03-25T03:57:21;5.70;99.90
20827;DHT22;10574;52.508;13.236;2024-03-25T03:59:48;5.70;99.90
20827;DHT22;10574;52.508;13.236;2024-03-25T04:02:16;5.70;99.90
20827;DHT22;10574;52.508;13.236;2024-03-25T04:04:44;5.70;99.90
20827;DHT22;10574;52.508;13.236;2024-03-25T04:07:11;5.70;99.90
20827;DHT22;10574;52.508;13.236;2024-03-25T04:09:39;5.70;99.90
20827;DHT22;10574;52.508;13.236;2024-03-25T04:12:07;5.70;99.90
20827;DHT22;10574;52.508;13.236;2024-03-25T04:14:35;5.70;99.90
20827;DHT22;10574;52.508;13.236;2024-03-25T04:17:02;5.60;99.90
20827;DHT22;10574;52.508;13.236;2024-03-25T04:19:31;5.60;99.90
20827;DHT22;10574;52.508;13.236;2024-03-25T04:21:59;5.60;99.90
20827;DHT22;10574;52.508;13.236;2024-03-25T04:24:27;5.60;99.90
20827;DHT22;10574;52.508;13.236;2024-03-25T04:26:55;5.70;99.90
20827;DHT22;10574;52.508;13.236;2024-03-25T04:29:22;5.60;99.90
20827;DHT22;10574;52.508;13.236;2024-03-25T04:31:50;5.70;99.90
20827;DHT22;10574;52.508;13.236;2024-03-25T04:34:17;5.70;99.90
20827;DHT22;10574;52.508;13.236;2024-03-25T04:36:47;5.70;99.90
20827;DHT22;10574;52.508;13.236;2024-03-25T04:39:15;5.70;99.90
20827;DHT22;10574;52.508;13.236;2024-03-25T04:41:42;5.70;99.90
20827;DHT22;10574;52.508;13.236;2024-03-25T04:44:10;5.70;99.90
20827;DHT22;10574;52.508;13.236;2024-03-25T04:46:38;5.70;99.90
20827;DHT22;10574;52.508;13.236;2024-03-25T04:49:05;5.70;99.90
20827;DHT22;10574;52.508;13.236;2024-03-25T04:51:33;5.70;99.90
20827;DHT22;10574;52.508;13.236;2024-03-25T04:54:01;5.80;99.90
20827;DHT22;10574;52.508;13.236;2024-03-25T04:56:29;5.70;99.90
20827;DHT22;10574;52.508;13.236;2024-03-25T04:58:57;5.70;99.90
20827;DHT22;10574;52.508;13.236;2024-03-25T05:01:30;5.70;99.90
20827;DHT22;10574;52.508;13.236;2024-03-25T05:03:57;5.80;99.90
20827;DHT22;10574;52.508;13.236;2024-03-25T05:06:25;5.80;99.90
20827;DHT22;10574;52.508;13.236;2024-03-25T05:08:53;5.70;99.90
20827;DHT22;10574;52.508;13.236;2024-03-25T05:11:20;5.70;99.90
20827;DHT22;10574;52.508;13.236;2024-03-25T05:13:48;5.80;99.90
20827;DHT22;10574;52.508;13.236;2024-03-25T05:16:16;5.80;99.90
20827;DHT22;10574;52.508;13.236;2024-03-25T05:18:44;5.80;99.90
20827;DHT22;10574;52.508;13.236;2024-03-25T05:21:11;5.80;99.90
20827;DHT22;10574;52.508;13.236;2024-03-25T05:23:39;5.80;99.90
20827;DHT22;10574;52.508;13.236;2024-03-25T05:26:07;5.80;99.90
20827;DHT22;10574;52.508;13.236;2024-03-25T05:28:35;5.80;99.90
20827;DHT22;10574;52.508;13.236;2024-03-25T05:31:06;5.80;99.90
20827;DHT22;10574;52.508;13.236;2024-03-25T05:33:34;5.80;99.90
20827;DHT22;10574;52.508;13.236;2024-03-25T05:36:02;5.80;99.90
20827;DHT22;10574;52.508;13.236;2024-03-25T05:38:30;5.70;99.90
20827;DHT22;10574;52.508;13.236;2024-03-25T05:40:58;5.70;99.90
20827;DHT22;10574;52.508;13.236;2024-03-25T05:43:26;5.70;99.90
20827;DHT22;10574;52.508;13.236;2024-03-25T05:45:54;5.70;99.90
20827;DHT22;10574;52.508;13.236;2024-03-25T05:48:24;5.70;99.90
20827;DHT22;10574;52.508;13.236;2024-03-25T05:51:01;5.70;99.90
20827;DHT22;10574;52.508;13.236;2024-03-25T05:53:30;5.80;99.90
20827;DHT22;10574;52.508;13.236;2024-03-25T05:55:57;5.80;99.90
20827;DHT22;10574;52.508;13.236;2024-03-25T05:58:26;5.80;99.90
20827;DHT22;10574;52.508;13.236;2024-03-25T06:00:54;5.80;99.90
20827;DHT22;10574;52.508;13.236;2024-03-25T06:03:22;5.80;99.90
20827;DHT22;10574;52.508;13.236;2024-03-25T06:05:49;5.80;99.90
20827;DHT22;10574;52.508;13.236;2024-03-25T06:08:17;5.80;99.90
20827;DHT22;10574;52.508;13.236;2024-03-25T06:10:46;5.80;99.90
20827;DHT22;10574;52.508;13.236;2024-03-25T06:13:14;5.80;99.90
20827;DHT22;10574;52.508;13.236;2024-03-25T06:15:42;5.80;99.90
20827;DHT22;10574;52.508;13.236;2024-03-25T06:18:10;5.80;99.90
20827;DHT22;10574;52.508;13.236;2024-03-25T06:20:38;5.80;99.90
20827;DHT22;10574;52.508;13.236;2024-03-25T06:23:05;5.80;99.90
20827;DHT22;10574;52.508;13.236;2024-03-25T06:25:33;5.80;99.90
20827;DHT22;10574;52.508;13.236;2024-03-25T06:28:02;5.80;99.90
20827;DHT22;10574;52.508;13.236;2024-03-25T06:30:29;5.80;99.90
20827;DHT22;10574;52.508;13.236;2024-03-25T06:33:15;5.80;99.90
20827;DHT22;10574;52.508;13.236;2024-03-25T06:36:01;5.80;99.90
20827;DHT22;10574;52.508;13.236;2024-03-25T06:38:29;5.80;99.90
20827;DHT22;10574;52.508;13.236;2024-03-25T06:40:56;5.80;99.90
20827;DHT22;10574;52.508;13.236;2024-03-25T06:43:25;5.90;99.90
20827;DHT22;10574;52.508;13.236;2024-03-25T06:45:52;5.80;99.90
20827;DHT22;10574;52.508;13.236;2024-03-25T06:48:20;5.80;99.90
20827;DHT22;10574;52.508;13.236;2024-03-25T06:50:55;5.80;99.90
20827;DHT22;10574;52.508;13.236;2024-03-25T06:53:23;5.80;99.90
20827;DHT22;10574;52.508;13.236;2024-03-25T06:58:23;5.80;99.90
20827;DHT22;10574;52.508;13.236;2024-03-25T07:00:51;5.80;99.90
20827;DHT22;10574;52.508;13.236;2024-03-25T07:03:23;5.80;99.90
20827;DHT22;10574;52.508;13.236;2024-03-25T07:05:52;5.80;99.90
20827;DHT22;10574;52.508;13.236;2024-03-25T07:08:22;5.80;99.90
20827;DHT22;10574;52.508;13.236;2024-03-25T07:10:50;5.80;99.90
20827;DHT22;10574;52.508;13.236;2024-03-25T07:13:20;5.80;99.90
20827;DHT22;10574;52.508;13.236;2024-03-25T07:15:51;5.90;99.90
20827;DHT22;10574;52.508;13.236;2024-03-25T07:18:18;5.90;99.90
20827;DHT22;10574;52.508;13.236;2024-03-25T07:20:47;5.90;99.90
20827;DHT22;10574;52.508;13.236;2024-03-25T07:23:15;6.00;99.90
20827;DHT22;10574;52.508;13.236;2024-03-25T07:25:43;5.90;99.90
20827;DHT22;10574;52.508;13.236;2024-03-25T07:28:11;6.00;99.90
20827;DHT22;10574;52.508;13.236;2024-03-25T07:30:39;5.90;99.90
20827;DHT22;10574;52.508;13.236;2024-03-25T07:33:06;6.00;99.90
20827;DHT22;10574;52.508;13.236;2024-03-25T07:35:37;6.00;99.90
20827;DHT22;10574;52.508;13.236;2024-03-25T07:38:05;6.00;99.90
20827;DHT22;10574;52.508;13.236;2024-03-25T07:40:33;6.00;99.90
20827;DHT22;10574;52.508;13.236;2024-03-25T07:43:00;6.00;99.90
20827;DHT22;10574;52.508;13.236;2024-03-25T07:45:28;6.00;99.90
20827;DHT22;10574;52.508;13.236;2024-03-25T07:47:56;6.00;99.90
20827;DHT22;10574;52.508;13.236;2024-03-25T07:50:24;6.00;99.90
20827;DHT22;10574;52.508;13.236;2024-03-25T07:52:51;6.10;99.90
20827;DHT22;10574;52.508;13.236;2024-03-25T07:55:19;6.10;99.90
20827;DHT22;10574;52.508;13.236;2024-03-25T07:57:47;6.20;99.90
20827;DHT22;10574;52.508;13.236;2024-03-25T08:00:15;6.20;99.90
20827;DHT22;10574;52.508;13.236;2024-03-25T08:02:42;6.20;99.90
20827;DHT22;10574;52.508;13.236;2024-03-25T08:05:10;6.20;99.90
20827;DHT22;10574;52.508;13.236;2024-03-25T08:07:38;6.20;99.90
20827;DHT22;10574;52.508;13.236;2024-03-25T08:10:06;6.20;99.90
20827;DHT22;10574;52.508;13.236;2024-03-25T08:12:35;6.30;99.90
20827;DHT22;10574;52.508;13.236;2024-03-25T08:15:03;6.30;99.90
20827;DHT22;10574;52.508;13.236;2024-03-25T08:17:30;6.40;99.90
20827;DHT22;10574;52.508;13.236;2024-03-25T08:19:58;6.50;99.90
20827;DHT22;10574;52.508;13.236;2024-03-25T08:22:26;6.70;99.90
20827;DHT22;10574;52.508;13.236;2024-03-25T08:24:53;6.70;99.90
20827;DHT22;10574;52.508;13.236;2024-03-25T08:27:21;6.80;99.90
20827;DHT22;10574;52.508;13.236;2024-03-25T08:29:49;6.80;99.90
20827;DHT22;10574;52.508;13.236;2024-03-25T08:32:18;6.90;99.90
20827;DHT22;10574;52.508;13.236;2024-03-25T08:34:46;7.00;99.90
20827;DHT22;10574;52.508;13.236;2024-03-25T08:37:14;7.10;99.90
20827;DHT22;10574;52.508;13.236;2024-03-25T08:39:41;7.00;99.90
20827;DHT22;10574;52.508;13.236;2024-03-25T08:42:09;7.00;99.90
20827;DHT22;10574;52.508;13.236;2024-03-25T08:44:37;7.10;99.90
20827;DHT22;10574;52.508;13.236;2024-03-25T08:47:04;7.10;99.90
20827;DHT22;10574;52.508;13.236;2024-03-25T08:49:32;7.20;99.90
20827;DHT22;10574;52.508;13.236;2024-03-25T08:52:00;7.20;99.90
20827;DHT22;10574;52.508;13.236;2024-03-25T08:54:29;7.20;99.90
20827;DHT22;10574;52.508;13.236;2024-03-25T08:56:56;7.30;99.90
20827;DHT22;10574;52.508;13.236;2024-03-25T08:59:24;7.40;99.90
20827;DHT22;10574;52.508;13.236;2024-03-25T09:01:52;7.50;99.90
20827;DHT22;10574;52.508;13.236;2024-03-25T09:04:20;7.50;99.90
20827;DHT22;10574;52.508;13.236;2024-03-25T09:06:48;7.50;99.90
20827;DHT22;10574;52.508;13.236;2024-03-25T09:09:15;7.50;99.90
20827;DHT22;10574;52.508;13.236;2024-03-25T09:12:01;7.60;99.90
20827;DHT22;10574;52.508;13.236;2024-03-25T09:14:29;7.60;99.90
20827;DHT22;10574;52.508;13.236;2024-03-25T09:16:57;7.50;99.90
20827;DHT22;10574;52.508;13.236;2024-03-25T09:19:25;7.30;99.90
20827;DHT22;10574;52.508;13.236;2024-03-25T09:21:52;7.30;99.90
20827;DHT22;10574;52.508;13.236;2024-03-25T09:24:20;7.20;99.90
20827;DHT22;10574;52.508;13.236;2024-03-25T09:26:49;7.30;99.90
20827;DHT22;10574;52.508;13.236;2024-03-25T09:29:17;7.40;99.90
20827;DHT22;10574;52.508;13.236;2024-03-25T09:31:45;7.60;99.90
20827;DHT22;10574;52.508;13.236;2024-03-25T09:34:12;7.70;99.90
20827;DHT22;10574;52.508;13.236;2024-03-25T09:36:41;7.90;99.90
20827;DHT22;10574;52.508;13.236;2024-03-25T09:39:08;7.90;99.90
20827;DHT22;10574;52.508;13.236;2024-03-25T09:41:36;8.10;99.90
20827;DHT22;10574;52.508;13.236;2024-03-25T09:44:06;8.30;99.90
20827;DHT22;10574;52.508;13.236;2024-03-25T09:46:34;8.50;99.90
20827;DHT22;10574;52.508;13.236;2024-03-25T09:49:02;8.70;99.90
20827;DHT22;10574;52.508;13.236;2024-03-25T09:51:32;9.10;99.90
20827;DHT22;10574;52.508;13.236;2024-03-25T09:54:00;9.30;99.90
20827;DHT22;10574;52.508;13.236;2024-03-25T09:56:27;9.50;99.90
20827;DHT22;10574;52.508;13.236;2024-03-25T09:58:55;9.40;99.90
20827;DHT22;10574;52.508;13.236;2024-03-25T10:01:23;9.30;99.90
20827;DHT22;10574;52.508;13.236;2024-03-25T10:03:51;9.20;99.90
20827;DHT22;10574;52.508;13.236;2024-03-25T10:06:19;9.20;99.90
20827;DHT22;10574;52.508;13.236;2024-03-25T10:08:47;9.00;99.90
20827;DHT22;10574;52.508;13.236;2024-03-25T10:11:16;9.00;99.90
20827;DHT22;10574;52.508;13.236;2024-03-25T10:13:44;9.00;99.90
20827;DHT22;10574;52.508;13.236;2024-03-25T10:16:11;9.10;99.90
20827;DHT22;10574;52.508;13.236;2024-03-25T10:18:40;9.00;99.90
20827;DHT22;10574;52.508;13.236;2024-03-25T10:21:14;8.90;99.90
20827;DHT22;10574;52.508;13.236;2024-03-25T10:23:40;8.90;99.90
20827;DHT22;10574;52.508;13.236;2024-03-25T10:26:09;9.10;99.90
20827;DHT22;10574;52.508;13.236;2024-03-25T10:28:37;9.10;99.90
20827;DHT22;10574;52.508;13.236;2024-03-25T10:31:04;9.30;99.90
20827;DHT22;10574;52.508;13.236;2024-03-25T10:33:32;9.40;99.90
20827;DHT22;10574;52.508;13.236;2024-03-25T10:36:19;9.50;99.90
20827;DHT22;10574;52.508;13.236;2024-03-25T10:38:49;9.40;99.90
20827;DHT22;10574;52.508;13.236;2024-03-25T10:41:18;9.30;99.90
20827;DHT22;10574;52.508;13.236;2024-03-25T10:43:47;9.10;99.90
20827;DHT22;10574;52.508;13.236;2024-03-25T10:46:18;9.00;99.90
20827;DHT22;10574;52.508;13.236;2024-03-25T10:51:21;9.10;99.90
20827;DHT22;10574;52.508;13.236;2024-03-25T10:53:52;9.00;99.90
20827;DHT22;10574;52.508;13.236;2024-03-25T10:56:21;9.10;99.90
20827;DHT22;10574;52.508;13.236;2024-03-25T10:58:50;9.20;99.90
20827;DHT22;10574;52.508;13.236;2024-03-25T11:01:19;9.10;99.90
20827;DHT22;10574;52.508;13.236;2024-03-25T11:03:47;9.20;99.90
20827;DHT22;10574;52.508;13.236;2024-03-25T11:06:16;9.40;99.90
20827;DHT22;10574;52.508;13.236;2024-03-25T11:08:43;9.30;99.90
20827;DHT22;10574;52.508;13.236;2024-03-25T11:11:13;9.30;99.90
20827;DHT22;10574;52.508;13.236;2024-03-25T11:13:47;9.40;99.90
20827;DHT22;10574;52.508;13.236;2024-03-25T11:16:31;9.30;99.90
20827;DHT22;10574;52.508;13.236;2024-03-25T11:19:05;9.30;99.90
20827;DHT22;10574;52.508;13.236;2024-03-25T11:21:33;9.50;99.90
20827;DHT22;10574;52.508;13.236;2024-03-25T11:24:08;9.60;99.90
20827;DHT22;10574;52.508;13.236;2024-03-25T11:26:40;9.80;99.90
20827;DHT22;10574;52.508;13.236;2024-03-25T11:29:09;9.90;99.90
20827;DHT22;10574;52.508;13.236;2024-03-25T11:31:38;9.80;99.90
20827;DHT22;10574;52.508;13.236;2024-03-25T11:34:06;9.90;99.90
20827;DHT22;10574;52.508;13.236;2024-03-25T11:36:34;9.90;99.90
20827;DHT22;10574;52.508;13.236;2024-03-25T11:39:04;10.00;99.90
20827;DHT22;10574;52.508;13.236;2024-03-25T11:41:33;10.00;99.90
20827;DHT22;10574;52.508;13.236;2024-03-25T11:44:02;10.00;99.90
20827;DHT22;10574;52.508;13.236;2024-03-25T11:46:31;10.20;99.90
20827;DHT22;10574;52.508;13.236;2024-03-25T11:48:59;10.30;99.90
20827;DHT22;10574;52.508;13.236;2024-03-25T11:51:26;10.50;99.90
20827;DHT22;10574;52.508;13.236;2024-03-25T11:53:54;10.50;99.90
20827;DHT22;10574;52.508;13.236;2024-03-25T11:56:22;10.60;99.90
20827;DHT22;10574;52.508;13.236;2024-03-25T11:58:50;10.50;99.90
20827;DHT22;10574;52.508;13.236;2024-03-25T12:01:17;10.60;99.90
20827;DHT22;10574;52.508;13.236;2024-03-25T12:03:45;10.60;99.90
20827;DHT22;10574;52.508;13.236;2024-03-25T12:06:13;10.80;99.90
20827;DHT22;10574;52.508;13.236;2024-03-25T12:08:40;11.00;99.90
20827;DHT22;10574;52.508;13.236;2024-03-25T12:11:10;11.10;99.90
20827;DHT22;10574;52.508;13.236;2024-03-25T12:13:47;11.20;99.90
20827;DHT22;10574;52.508;13.236;2024-03-25T12:16:14;11.20;99.90
20827;DHT22;10574;52.508;13.236;2024-03-25T12:18:43;11.20;99.90
20827;DHT22;10574;52.508;13.236;2024-03-25T12:21:11;11.20;99.90
20827;DHT22;10574;52.508;13.236;2024-03-25T12:23:39;11.30;99.90
20827;DHT22;10574;52.508;13.236;2024-03-25T12:26:08;11.30;99.90
20827;DHT22;10574;52.508;13.236;2024-03-25T12:28:36;11.10;99.90
20827;DHT22;10574;52.508;13.236;2024-03-25T12:31:08;10.90;99.90
20827;DHT22;10574;52.508;13.236;2024-03-25T12:33:44;10.70;99.90
20827;DHT22;10574;52.508;13.236;2024-03-25T12:36:12;10.50;99.90
20827;DHT22;10574;52.508;13.236;2024-03-25T12:38:40;10.40;99.90
20827;DHT22;10574;52.508;13.236;2024-03-25T12:41:10;10.30;99.90
20827;DHT22;10574;52.508;13.236;2024-03-25T12:43:42;10.20;99.90
20827;DHT22;10574;52.508;13.236;2024-03-25T12:46:11;10.20;99.90
20827;DHT22;10574;52.508;13.236;2024-03-25T12:48:39;10.10;99.90
20827;DHT22;10574;52.508;13.236;2024-03-25T12:51:16;10.20;99.90
20827;DHT22;10574;52.508;13.236;2024-03-25T12:53:44;10.30;99.90
20827;DHT22;10574;52.508;13.236;2024-03-25T12:56:12;10.50;99.90
20827;DHT22;10574;52.508;13.236;2024-03-25T12:58:40;10.50;99.90
20827;DHT22;10574;52.508;13.236;2024-03-25T13:01:08;10.50;99.90
20827;DHT22;10574;52.508;13.236;2024-03-25T13:03:35;10.40;99.90
20827;DHT22;10574;52.508;13.236;2024-03-25T13:06:03;10.40;99.90
20827;DHT22;10574;52.508;13.236;2024-03-25T13:08:31;10.30;99.90
20827;DHT22;10574;52.508;13.236;2024-03-25T13:10:59;10.30;99.90
20827;DHT22;10574;52.508;13.236;2024-03-25T13:13:27;10.40;99.90
20827;DHT22;10574;52.508;13.236;2024-03-25T13:15:54;10.50;99.90
20827;DHT22;10574;52.508;13.236;2024-03-25T13:18:22;10.60;99.90
20827;DHT22;10574;52.508;13.236;2024-03-25T13:20:50;10.70;99.90
20827;DHT22;10574;52.508;13.236;2024-03-25T13:23:18;10.80;99.90
20827;DHT22;10574;52.508;13.236;2024-03-25T13:25:46;10.90;99.90
20827;DHT22;10574;52.508;13.236;2024-03-25T13:28:14;10.90;99.90
20827;DHT22;10574;52.508;13.236;2024-03-25T13:30:41;10.80;99.90
20827;DHT22;10574;52.508;13.236;2024-03-25T13:33:09;10.70;99.90
20827;DHT22;10574;52.508;13.236;2024-03-25T13:35:37;10.70;99.90
20827;DHT22;10574;52.508;13.236;2024-03-25T13:38:05;10.70;99.90
20827;DHT22;10574;52.508;13.236;2024-03-25T13:40:32;10.70;99.90
20827;DHT22;10574;52.508;13.236;2024-03-25T13:43:00;10.90;99.90
20827;DHT22;10574;52.508;13.236;2024-03-25T13:45:28;11.00;99.90
20827;DHT22;10574;52.508;13.236;2024-03-25T13:47:56;11.00;99.90
20827;DHT22;10574;52.508;13.236;2024-03-25T13:50:24;11.00;99.90
20827;DHT22;10574;52.508;13.236;2024-03-25T13:52:51;11.00;99.90
20827;DHT22;10574;52.508;13.236;2024-03-25T13:55:19;11.10;99.90
20827;DHT22;10574;52.508;13.236;2024-03-25T13:57:49;11.20;99.90
20827;DHT22;10574;52.508;13.236;2024-03-25T14:00:17;11.10;99.90
20827;DHT22;10574;52.508;13.236;2024-03-25T14:02:45;11.00;99.90
20827;DHT22;10574;52.508;13.236;2024-03-25T14:05:13;10.90;99.90
20827;DHT22;10574;52.508;13.236;2024-03-25T14:07:40;10.70;99.90
20827;DHT22;10574;52.508;13.236;2024-03-25T14:10:18;10.70;99.90
20827;DHT22;10574;52.508;13.236;2024-03-25T14:12:49;10.70;99.90
20827;DHT22;10574;52.508;13.236;2024-03-25T14:15:17;10.60;99.90
20827;DHT22;10574;52.508;13.236;2024-03-25T14:17:50;10.50;99.90
20827;DHT22;10574;52.508;13.236;2024-03-25T14:20:18;10.40;99.90
20827;DHT22;10574;52.508;13.236;2024-03-25T14:22:48;10.30;99.90
20827;DHT22;10574;52.508;13.236;2024-03-25T14:25:19;10.20;99.90
20827;DHT22;10574;52.508;13.236;2024-03-25T14:27:46;10.10;99.90
20827;DHT22;10574;52.508;13.236;2024-03-25T14:30:14;10.10;99.90
20827;DHT22;10574;52.508;13.236;2024-03-25T14:32:42;10.00;99.90
20827;DHT22;10574;52.508;13.236;2024-03-25T14:35:11;10.00;99.90
20827;DHT22;10574;52.508;13.236;2024-03-25T14:37:40;9.90;99.90
20827;DHT22;10574;52.508;13.236;2024-03-25T14:40:10;10.00;99.90
20827;DHT22;10574;52.508;13.236;2024-03-25T14:42:46;9.90;99.90
20827;DHT22;10574;52.508;13.236;2024-03-25T14:45:16;9.80;99.90
20827;DHT22;10574;52.508;13.236;2024-03-25T14:47:44;9.80;99.90
20827;DHT22;10574;52.508;13.236;2024-03-25T14:50:12;9.90;99.90
20827;DHT22;10574;52.508;13.236;2024-03-25T14:52:39;9.80;99.90
20827;DHT22;10574;52.508;13.236;2024-03-25T14:55:08;9.70;99.90
20827;DHT22;10574;52.508;13.236;2024-03-25T14:57:38;9.60;99.90
20827;DHT22;10574;52.508;13.236;2024-03-25T15:00:08;9.30;99.90
20827;DHT22;10574;52.508;13.236;2024-03-25T15:02:40;9.20;99.90
20827;DHT22;10574;52.508;13.236;2024-03-25T15:05:08;8.90;99.90
20827;DHT22;10574;52.508;13.236;2024-03-25T15:07:37;8.70;99.90
20827;DHT22;10574;52.508;13.236;2024-03-25T15:10:07;8.50;99.90
20827;DHT22;10574;52.508;13.236;2024-03-25T15:12:35;8.30;99.90
20827;DHT22;10574;52.508;13.236;2024-03-25T15:15:05;8.10;99.90
20827;DHT22;10574;52.508;13.236;2024-03-25T15:17:34;8.00;99.90
20827;DHT22;10574;52.508;13.236;2024-03-25T15:20:03;7.80;99.90
20827;DHT22;10574;52.508;13.236;2024-03-25T15:22:32;7.50;99.90
20827;DHT22;10574;52.508;13.236;2024-03-25T15:25:00;7.40;99.90
20827;DHT22;10574;52.508;13.236;2024-03-25T15:27:27;7.30;99.90
20827;DHT22;10574;52.508;13.236;2024-03-25T15:30:03;7.20;99.90
20827;DHT22;10574;52.508;13.236;2024-03-25T15:32:37;7.20;99.90
20827;DHT22;10574;52.508;13.236;2024-03-25T15:35:11;7.20;99.90
20827;DHT22;10574;52.508;13.236;2024-03-25T15:37:38;7.30;99.90
20827;DHT22;10574;52.508;13.236;2024-03-25T15:40:07;7.40;99.90
20827;DHT22;10574;52.508;13.236;2024-03-25T15:42:36;7.50;99.90